createdAt,value
2022-11-10T00:02:26.495Z,35.90
2022-11-10T00:04:54.225Z,35.20
2022-11-10T00:07:26.523Z,35.40
2022-11-10T00:09:55.368Z,32.10
2022-11-10T00:12:23.315Z,34.70
2022-11-10T00:15:09.870Z,34.20
2022-11-10T00:17:38.748Z,34.80
2022-11-10T00:20:07.176Z,32.20
2022-11-10T00:22:36.384Z,32.80
2022-11-10T00:25:05.507Z,33.70
2022-11-10T00:27:33.937Z,34.30
2022-11-10T00:30:02.061Z,35.00
2022-11-10T00:32:30.053Z,35.90
2022-11-10T00:34:57.930Z,34.00
2022-11-10T00:37:25.640Z,30.50
2022-11-10T00:39:53.374Z,35.20
2022-11-10T00:42:21.771Z,32.40
2022-11-10T00:44:49.510Z,30.50
2022-11-10T00:47:17.270Z,35.10
2022-11-10T00:49:45.040Z,33.20
2022-11-10T00:52:12.777Z,33.60
2022-11-10T00:54:41.764Z,32.60
2022-11-10T00:57:09.678Z,32.80
2022-11-10T00:59:37.396Z,31.70
2022-11-10T01:02:05.139Z,32.80
2022-11-10T01:04:33.413Z,32.70
2022-11-10T01:07:01.200Z,32.50
2022-11-10T01:09:28.913Z,31.90
2022-11-10T01:11:56.989Z,33.90
2022-11-10T01:14:24.699Z,31.70
2022-11-10T01:16:52.492Z,32.30
2022-11-10T01:19:20.422Z,32.10
2022-11-10T01:21:51.480Z,30.30
2022-11-10T01:24:21.924Z,33.50
2022-11-10T01:26:49.726Z,31.50
2022-11-10T01:29:17.619Z,32.70
2022-11-10T01:31:45.425Z,33.70
2022-11-10T01:34:13.264Z,32.80
2022-11-10T01:36:41.115Z,34.90
2022-11-10T01:39:08.980Z,34.10
2022-11-10T01:41:36.710Z,32.80
2022-11-10T01:44:22.423Z,31.90
2022-11-10T01:46:50.242Z,32.30
2022-11-10T01:49:23.041Z,33.50
2022-11-10T01:52:07.942Z,32.40
2022-11-10T01:54:43.461Z,32.90
2022-11-10T01:57:14.028Z,33.10
2022-11-10T01:59:49.564Z,32.40
2022-11-10T02:02:35.451Z,32.00
2022-11-10T02:05:04.953Z,31.80
2022-11-10T02:07:33.390Z,33.10
2022-11-10T02:10:06.101Z,32.10
2022-11-10T02:12:39.688Z,34.00
2022-11-10T02:17:37.412Z,33.80
2022-11-10T02:20:12.097Z,34.00
2022-11-10T02:22:40.625Z,32.30
2022-11-10T02:25:09.285Z,33.40
2022-11-10T02:27:37.159Z,34.00
2022-11-10T02:30:05.459Z,33.30
2022-11-10T02:32:33.178Z,32.40
2022-11-10T02:35:00.938Z,36.40
2022-11-10T02:37:29.141Z,33.90
2022-11-10T02:39:56.885Z,31.20
2022-11-10T02:42:24.725Z,33.50
2022-11-10T02:44:52.726Z,32.70
2022-11-10T02:47:20.590Z,34.30
2022-11-10T02:49:48.337Z,34.60
2022-11-10T02:52:16.220Z,34.00
2022-11-10T02:54:44.090Z,31.90
2022-11-10T02:57:12.054Z,34.40
2022-11-10T02:59:39.854Z,35.00
2022-11-10T03:02:07.788Z,34.80
2022-11-10T03:04:35.561Z,32.60
2022-11-10T03:07:03.542Z,32.40
2022-11-10T03:09:31.718Z,32.90
2022-11-10T03:11:59.660Z,33.40
2022-11-10T03:14:27.357Z,33.00
2022-11-10T03:16:55.119Z,32.60
2022-11-10T03:19:22.884Z,34.50
2022-11-10T03:21:50.672Z,32.40
2022-11-10T03:24:18.889Z,35.50
2022-11-10T03:26:46.580Z,31.30
2022-11-10T03:29:14.622Z,36.90
2022-11-10T03:31:42.343Z,30.30
2022-11-10T03:34:10.352Z,36.60
2022-11-10T03:36:38.337Z,33.30
2022-11-10T03:39:06.290Z,32.90
2022-11-10T03:41:34.831Z,33.60
2022-11-10T03:44:02.977Z,32.80
2022-11-10T03:46:30.750Z,33.70
2022-11-10T03:48:58.496Z,34.40
2022-11-10T03:51:26.304Z,32.70
2022-11-10T03:53:54.029Z,32.10
2022-11-10T03:56:21.720Z,35.00
2022-11-10T03:58:50.635Z,34.70
2022-11-10T04:01:18.977Z,37.30
2022-11-10T04:03:51.285Z,31.40
2022-11-10T04:06:39.084Z,26.90
2022-11-10T04:09:08.627Z,32.80
2022-11-10T04:11:54.837Z,33.70
2022-11-10T04:14:41.545Z,30.70
2022-11-10T04:17:09.956Z,36.10
2022-11-10T04:19:37.749Z,34.30
2022-11-10T04:22:05.493Z,32.90
2022-11-10T04:24:33.216Z,35.80
2022-11-10T04:27:00.957Z,35.30
2022-11-10T04:29:28.688Z,32.00
2022-11-10T04:31:56.385Z,33.20
2022-11-10T04:34:24.112Z,33.80
2022-11-10T04:36:52.462Z,32.20
2022-11-10T04:39:20.363Z,34.30
2022-11-10T04:41:49.041Z,33.30
2022-11-10T04:44:16.813Z,31.50
2022-11-10T04:46:46.979Z,36.20
2022-11-10T04:49:14.689Z,31.90
2022-11-10T04:51:42.654Z,33.90
2022-11-10T04:54:11.848Z,32.90
2022-11-10T04:56:40.637Z,31.00
2022-11-10T04:59:09.175Z,31.40
2022-11-10T05:01:36.921Z,32.10
2022-11-10T05:04:05.873Z,32.90
2022-11-10T05:06:33.692Z,36.00
2022-11-10T05:09:02.218Z,33.10
2022-11-10T05:11:29.956Z,32.50
2022-11-10T05:13:57.711Z,34.00
2022-11-10T05:16:25.472Z,33.80
2022-11-10T05:18:54.481Z,34.10
2022-11-10T05:21:22.241Z,33.60
2022-11-10T05:23:49.973Z,34.60
2022-11-10T05:26:18.486Z,35.80
2022-11-10T05:28:46.742Z,33.00
2022-11-10T05:31:14.525Z,37.10
2022-11-10T05:33:42.473Z,36.40
2022-11-10T05:36:10.743Z,35.30
2022-11-10T05:38:43.442Z,35.70
2022-11-10T05:41:12.250Z,36.90
2022-11-10T05:43:40.532Z,35.60
2022-11-10T05:46:08.587Z,37.80
2022-11-10T05:48:36.292Z,34.30
2022-11-10T05:51:04.132Z,36.30
2022-11-10T05:53:32.029Z,36.00
2022-11-10T05:55:59.771Z,38.60
2022-11-10T05:58:27.502Z,39.20
2022-11-10T06:00:55.277Z,36.70
2022-11-10T06:03:23.370Z,41.10
2022-11-10T06:05:52.068Z,39.30
2022-11-10T06:08:21.227Z,35.40
2022-11-10T06:10:49.174Z,39.70
2022-11-10T06:13:17.030Z,39.80
2022-11-10T06:15:50.040Z,38.90
2022-11-10T06:20:47.818Z,34.70
2022-11-10T06:23:16.056Z,36.30
2022-11-10T06:25:44.793Z,37.70
2022-11-10T06:28:15.013Z,39.80
2022-11-10T06:30:42.812Z,38.90
2022-11-10T06:33:10.610Z,39.10
2022-11-10T06:35:38.414Z,40.00
2022-11-10T06:38:10.546Z,38.40
2022-11-10T06:40:38.449Z,38.10
2022-11-10T06:43:06.230Z,41.40
2022-11-10T06:45:33.972Z,37.60
2022-11-10T06:48:06.783Z,36.00
2022-11-10T06:50:34.619Z,40.60
2022-11-10T06:53:02.825Z,39.60
2022-11-10T06:55:31.152Z,42.50
2022-11-10T06:57:59.942Z,42.30
2022-11-10T07:00:29.508Z,42.40
2022-11-10T07:03:08.406Z,44.30
2022-11-10T07:05:36.933Z,45.10
2022-11-10T07:08:07.087Z,44.60
2022-11-10T07:10:36.521Z,43.90
2022-11-10T07:13:05.274Z,37.60
2022-11-10T07:15:34.474Z,42.90
2022-11-10T07:18:03.230Z,41.00
2022-11-10T07:20:32.321Z,39.40
2022-11-10T07:23:05.786Z,40.90
2022-11-10T07:25:37.273Z,41.10
2022-11-10T07:28:07.816Z,39.00
2022-11-10T07:30:35.805Z,41.50
2022-11-10T07:33:08.162Z,40.30
2022-11-10T07:35:37.175Z,35.80
2022-11-10T07:38:11.284Z,39.80
2022-11-10T07:40:39.509Z,37.30
2022-11-10T07:43:07.389Z,40.30
2022-11-10T07:45:35.195Z,35.90
2022-11-10T07:48:05.373Z,38.30
2022-11-10T07:50:33.997Z,38.90
2022-11-10T07:53:13.552Z,35.90
2022-11-10T07:55:43.795Z,37.10
2022-11-10T07:58:14.184Z,36.90
2022-11-10T08:00:42.900Z,33.80
2022-11-10T08:03:19.798Z,32.80
2022-11-10T08:05:48.852Z,33.70
2022-11-10T08:08:16.783Z,33.70
2022-11-10T08:10:44.594Z,30.90
2022-11-10T08:13:14.432Z,33.10
2022-11-10T08:15:42.254Z,32.30
2022-11-10T08:18:15.671Z,31.70
2022-11-10T08:20:44.180Z,34.10
2022-11-10T08:23:12.381Z,37.20
2022-11-10T08:25:40.978Z,31.20
2022-11-10T08:28:15.071Z,31.10
2022-11-10T08:30:45.417Z,32.20
2022-11-10T08:33:15.921Z,28.90
2022-11-10T08:35:47.188Z,34.90
2022-11-10T08:38:17.880Z,30.10
2022-11-10T08:40:46.374Z,32.90
2022-11-10T08:43:15.810Z,30.20
2022-11-10T08:45:45.173Z,29.40
2022-11-10T08:48:19.036Z,29.00
2022-11-10T08:50:47.891Z,26.70
2022-11-10T08:53:18.189Z,30.10
2022-11-10T08:55:46.892Z,31.00
2022-11-10T08:58:17.617Z,28.60
2022-11-10T09:00:46.393Z,31.30
2022-11-10T09:03:17.172Z,27.60
2022-11-10T09:05:46.444Z,26.40
2022-11-10T09:08:15.743Z,27.90
2022-11-10T09:10:47.530Z,27.10
2022-11-10T09:13:16.705Z,26.40
2022-11-10T09:15:44.994Z,26.70
2022-11-10T09:18:15.450Z,27.80
2022-11-10T09:20:43.324Z,28.40
2022-11-10T09:23:17.503Z,24.90
2022-11-10T09:25:51.584Z,29.30
2022-11-10T09:28:20.575Z,30.70
2022-11-10T09:30:50.762Z,25.90
2022-11-10T09:33:18.500Z,28.80
2022-11-10T09:35:46.330Z,33.70
2022-11-10T09:38:14.179Z,33.70
2022-11-10T09:41:07.377Z,31.70
2022-11-10T09:43:46.086Z,33.90
2022-11-10T09:46:38.396Z,31.50
2022-11-10T09:49:30.062Z,33.40
2022-11-10T09:52:00.476Z,35.10
2022-11-10T09:54:43.156Z,35.20
2022-11-10T09:57:14.775Z,37.10
2022-11-10T09:59:44.328Z,37.90
2022-11-10T10:02:40.483Z,40.40
2022-11-10T10:05:48.732Z,42.80
2022-11-10T10:08:31.590Z,41.70
2022-11-10T10:11:08.144Z,36.50
2022-11-10T10:13:48.421Z,46.10
2022-11-10T10:16:27.549Z,46.30
2022-11-10T10:19:15.368Z,49.10
2022-11-10T10:22:07.768Z,44.60
2022-11-10T10:24:38.824Z,44.90
2022-11-10T10:27:12.263Z,44.20
2022-11-10T10:29:45.210Z,41.60
2022-11-10T10:32:14.679Z,41.90
2022-11-10T10:34:44.474Z,40.50
2022-11-10T10:37:31.198Z,43.00
2022-11-10T10:39:58.946Z,41.80
2022-11-10T10:42:38.082Z,42.40
2022-11-10T10:45:20.988Z,41.70
2022-11-10T10:47:54.693Z,38.90
2022-11-10T10:50:24.619Z,38.70
2022-11-10T10:53:10.794Z,38.50
2022-11-10T10:55:39.765Z,37.30
2022-11-10T10:58:29.719Z,38.00
2022-11-10T11:01:19.785Z,36.90
2022-11-10T11:03:50.338Z,37.60
2022-11-10T11:06:20.167Z,39.20
2022-11-10T11:08:59.386Z,37.40
2022-11-10T11:11:37.264Z,38.50
2022-11-10T11:14:29.465Z,37.00
2022-11-10T11:17:22.054Z,40.20
2022-11-10T11:19:59.778Z,39.50
2022-11-10T11:22:59.306Z,37.70
2022-11-10T11:25:36.341Z,39.20
2022-11-10T11:28:16.920Z,35.80
2022-11-10T11:31:22.784Z,38.30
2022-11-10T11:34:17.811Z,45.70
2022-11-10T11:37:16.541Z,38.30
2022-11-10T11:40:05.739Z,43.40
2022-11-10T11:42:59.192Z,40.90
2022-11-10T11:45:52.613Z,42.40
2022-11-10T11:48:33.787Z,44.40
2022-11-10T11:51:29.412Z,43.80
2022-11-10T11:54:17.895Z,40.80
2022-11-10T11:56:49.882Z,41.90
2022-11-10T11:59:45.195Z,42.60
2022-11-10T12:02:31.582Z,41.00
2022-11-10T12:05:15.341Z,41.90
2022-11-10T12:07:55.497Z,42.80
2022-11-10T12:11:02.488Z,40.70
2022-11-10T12:13:41.804Z,38.70
2022-11-10T12:16:30.110Z,42.60
2022-11-10T12:19:16.175Z,39.70
2022-11-10T12:22:15.421Z,43.50
2022-11-10T12:24:50.130Z,43.80
2022-11-10T12:27:33.549Z,46.30
2022-11-10T12:30:06.422Z,50.80
2022-11-10T12:32:49.497Z,46.70
2022-11-10T12:35:26.226Z,47.40
2022-11-10T12:38:07.703Z,46.30
2022-11-10T12:40:52.049Z,48.60
2022-11-10T12:43:28.591Z,43.30
2022-11-10T12:46:00.391Z,41.70
2022-11-10T12:48:45.047Z,43.50
2022-11-10T12:51:28.437Z,46.80
2022-11-10T12:53:56.252Z,43.00
2022-11-10T12:56:37.852Z,51.80
2022-11-10T12:59:20.963Z,44.70
2022-11-10T13:01:52.909Z,46.70
2022-11-10T13:04:21.215Z,48.40
2022-11-10T13:06:53.090Z,49.40
2022-11-10T13:09:25.887Z,47.50
2022-11-10T13:12:23.220Z,49.80
2022-11-10T13:14:50.975Z,49.00
2022-11-10T13:17:31.006Z,47.40
2022-11-10T13:20:27.762Z,47.40
2022-11-10T13:22:51.112Z,50.40
2022-11-10T13:25:37.664Z,48.30
2022-11-10T13:28:09.601Z,46.30
2022-11-10T13:30:39.328Z,49.90
2022-11-10T13:33:30.536Z,44.20
2022-11-10T13:35:58.381Z,46.00
2022-11-10T13:38:31.977Z,44.90
2022-11-10T13:43:58.105Z,44.10
2022-11-10T13:47:00.647Z,47.40
2022-11-10T13:49:54.679Z,49.20
2022-11-10T13:52:47.704Z,47.30
2022-11-10T13:55:27.528Z,52.50
2022-11-10T13:58:04.571Z,45.70
2022-11-10T14:00:35.800Z,50.00
2022-11-10T14:03:06.085Z,52.60
2022-11-10T14:05:42.101Z,47.40
2022-11-10T14:08:09.801Z,53.00
2022-11-10T14:11:00.012Z,51.50
2022-11-10T14:13:50.386Z,51.50
2022-11-10T14:16:24.769Z,50.90
2022-11-10T14:19:13.918Z,55.20
2022-11-10T14:22:17.452Z,60.50
2022-11-10T14:25:03.792Z,60.60
2022-11-10T14:27:35.550Z,65.20
2022-11-10T14:30:28.081Z,61.50
2022-11-10T14:33:06.671Z,68.80
2022-11-10T14:35:49.158Z,64.40
2022-11-10T14:38:27.879Z,66.10
2022-11-10T14:40:58.440Z,69.20
2022-11-10T14:43:30.760Z,63.50
2022-11-10T14:46:00.236Z,70.50
2022-11-10T14:48:31.499Z,74.40
2022-11-10T14:51:06.183Z,63.80
2022-11-10T14:53:39.099Z,68.20
2022-11-10T14:56:16.006Z,67.60
2022-11-10T14:58:44.889Z,68.50
2022-11-10T15:01:34.904Z,68.70
2022-11-10T15:04:06.022Z,66.10
2022-11-10T15:06:35.249Z,64.10
2022-11-10T15:09:16.263Z,66.40
2022-11-10T15:11:53.642Z,62.10
2022-11-10T15:14:44.923Z,70.40
2022-11-10T15:17:18.825Z,67.90
2022-11-10T15:19:46.549Z,64.50
2022-11-10T15:22:36.101Z,67.20
2022-11-10T15:25:19.998Z,65.60
2022-11-10T15:28:02.121Z,71.50
2022-11-10T15:30:30.209Z,65.50
2022-11-10T15:33:01.991Z,64.70
2022-11-10T15:35:32.053Z,63.30
2022-11-10T15:38:08.962Z,63.20
2022-11-10T15:40:42.574Z,61.90
2022-11-10T15:45:44.440Z,63.30
2022-11-10T15:48:15.769Z,68.10
2022-11-10T15:50:47.763Z,66.60
2022-11-10T15:53:27.036Z,61.40
2022-11-10T15:55:54.792Z,67.40
2022-11-10T15:58:24.077Z,64.10
2022-11-10T16:00:52.111Z,64.40
2022-11-10T16:03:22.782Z,61.10
2022-11-10T16:05:50.543Z,60.80
2022-11-10T16:08:20.892Z,61.00
2022-11-10T16:10:52.703Z,62.70
2022-11-10T16:13:25.310Z,63.10
2022-11-10T16:15:54.391Z,65.20
2022-11-10T16:18:25.265Z,59.00
2022-11-10T16:20:53.381Z,62.50
2022-11-10T16:23:21.910Z,62.10
2022-11-10T16:25:52.152Z,67.40
2022-11-10T16:28:26.138Z,65.30
2022-11-10T16:30:55.216Z,67.90
2022-11-10T16:33:24.818Z,60.90
2022-11-10T16:35:54.639Z,57.40
2022-11-10T16:38:28.549Z,65.20
2022-11-10T16:40:59.891Z,63.00
2022-11-10T16:43:30.015Z,62.40
2022-11-10T16:46:02.545Z,63.50
2022-11-10T16:48:37.135Z,63.00
2022-11-10T16:51:05.142Z,63.10
2022-11-10T16:53:32.897Z,65.70
2022-11-10T16:56:00.577Z,66.60
2022-11-10T16:58:28.457Z,63.30
2022-11-10T17:01:00.366Z,67.90
2022-11-10T17:03:40.214Z,68.30
2022-11-10T17:06:13.793Z,61.90
2022-11-10T17:08:43.668Z,65.20
2022-11-10T17:11:11.516Z,71.60
2022-11-10T17:13:39.260Z,63.30
2022-11-10T17:16:16.820Z,69.50
2022-11-10T17:18:45.110Z,69.30
2022-11-10T17:21:13.892Z,71.60
2022-11-10T17:23:41.682Z,73.30
2022-11-10T17:26:12.378Z,71.90
2022-11-10T17:28:40.119Z,76.40
2022-11-10T17:31:07.959Z,72.60
2022-11-10T17:33:35.730Z,75.10
2022-11-10T17:36:05.421Z,74.10
2022-11-10T17:38:33.644Z,75.80
2022-11-10T17:41:01.435Z,82.90
2022-11-10T17:43:29.222Z,76.00
2022-11-10T17:45:56.946Z,75.10
2022-11-10T17:48:24.683Z,72.20
2022-11-10T17:50:52.401Z,65.70
2022-11-10T17:53:23.723Z,72.60
2022-11-10T17:55:51.876Z,72.20
2022-11-10T17:58:20.458Z,80.30
2022-11-10T18:00:48.799Z,74.90
2022-11-10T18:03:20.249Z,85.50
2022-11-10T18:05:49.088Z,87.10
2022-11-10T18:08:17.772Z,89.80
2022-11-10T18:10:53.231Z,80.70
2022-11-10T18:13:21.302Z,80.70
2022-11-10T18:15:49.643Z,82.40
2022-11-10T18:18:18.342Z,81.60
2022-11-10T18:20:46.087Z,80.80
2022-11-10T18:23:14.464Z,77.40
2022-11-10T18:25:43.054Z,82.30
2022-11-10T18:28:14.500Z,81.40
2022-11-10T18:30:43.561Z,84.90
2022-11-10T18:33:12.790Z,77.60
2022-11-10T18:35:40.798Z,73.10
2022-11-10T18:38:11.393Z,72.50
2022-11-10T18:40:39.799Z,74.60
2022-11-10T18:43:08.034Z,81.40
2022-11-10T18:45:37.260Z,71.50
2022-11-10T18:48:05.806Z,72.00
2022-11-10T18:50:33.528Z,69.30
2022-11-10T18:53:03.642Z,73.00
2022-11-10T18:55:31.606Z,70.60
2022-11-10T18:58:00.182Z,68.10
2022-11-10T19:00:28.064Z,66.70
2022-11-10T19:02:56.154Z,63.40
2022-11-10T19:05:24.837Z,66.30
2022-11-10T19:07:52.681Z,71.20
2022-11-10T19:10:20.431Z,96.90
2022-11-10T19:12:48.424Z,76.50
2022-11-10T19:15:16.260Z,63.20
2022-11-10T19:17:43.999Z,60.30
2022-11-10T19:20:14.681Z,65.70
2022-11-10T19:22:42.524Z,59.50
2022-11-10T19:25:10.262Z,61.40
2022-11-10T19:27:38.103Z,63.20
2022-11-10T19:30:06.553Z,56.70
2022-11-10T19:32:34.477Z,62.30
2022-11-10T19:35:04.064Z,60.80
2022-11-10T19:37:35.184Z,56.80
2022-11-10T19:40:04.483Z,54.40
2022-11-10T19:42:33.164Z,52.90
2022-11-10T19:45:01.879Z,56.30
2022-11-10T19:47:30.648Z,51.50
2022-11-10T19:49:58.429Z,52.80
2022-11-10T19:52:26.271Z,56.10
2022-11-10T19:54:54.171Z,57.40
2022-11-10T19:57:23.327Z,57.80
2022-11-10T19:59:51.120Z,56.30
2022-11-10T20:02:18.968Z,58.10
2022-11-10T20:05:05.610Z,57.50
2022-11-10T20:07:52.043Z,57.30
2022-11-10T20:10:21.363Z,58.70
2022-11-10T20:12:50.075Z,61.60
2022-11-10T20:15:18.172Z,59.20
2022-11-10T20:17:45.954Z,61.80
2022-11-10T20:20:13.836Z,59.70
2022-11-10T20:22:41.569Z,64.40
2022-11-10T20:25:10.990Z,58.50
2022-11-10T20:27:38.856Z,66.40
2022-11-10T20:30:07.279Z,62.90
2022-11-10T20:32:35.086Z,64.60
2022-11-10T20:35:02.830Z,64.80
2022-11-10T20:37:35.093Z,63.40
2022-11-10T20:40:13.971Z,67.20
2022-11-10T20:42:53.422Z,63.50
2022-11-10T20:45:21.243Z,59.50
2022-11-10T20:47:49.048Z,59.20
2022-11-10T20:50:20.453Z,65.20
2022-11-10T20:52:57.227Z,61.40
2022-11-10T20:55:51.696Z,57.20
2022-11-10T20:58:12.959Z,58.00
2022-11-10T21:00:44.982Z,58.70
2022-11-10T21:03:12.719Z,62.90
2022-11-10T21:05:42.664Z,59.60
2022-11-10T21:08:12.495Z,58.10
2022-11-10T21:10:40.346Z,59.00
2022-11-10T21:13:08.210Z,59.70
2022-11-10T21:15:40.638Z,59.30
2022-11-10T21:18:10.480Z,57.00
2022-11-10T21:20:38.221Z,61.90
2022-11-10T21:23:05.933Z,58.40
2022-11-10T21:25:33.928Z,60.70
2022-11-10T21:28:03.598Z,63.70
2022-11-10T21:30:31.342Z,59.00
2022-11-10T21:32:59.428Z,60.60
2022-11-10T21:35:28.323Z,59.70
2022-11-10T21:37:56.166Z,61.00
2022-11-10T21:40:23.916Z,59.00
2022-11-10T21:42:56.217Z,59.10
2022-11-10T21:45:25.581Z,59.70
2022-11-10T21:47:53.330Z,63.70
2022-11-10T21:50:21.137Z,57.70
2022-11-10T21:52:48.832Z,57.50
2022-11-10T21:55:16.651Z,63.00
2022-11-10T21:57:44.378Z,64.80
2022-11-10T22:00:14.338Z,59.10
2022-11-10T22:02:42.095Z,61.90
2022-11-10T22:05:09.828Z,55.50
2022-11-10T22:07:39.669Z,63.60
2022-11-10T22:10:26.555Z,62.50
2022-11-10T22:13:12.907Z,60.80
2022-11-10T22:15:59.206Z,61.80
2022-11-10T22:18:40.864Z,59.80
2022-11-10T22:21:10.670Z,58.80
2022-11-10T22:23:57.285Z,60.50
2022-11-10T22:26:25.044Z,65.50
2022-11-10T22:28:52.839Z,67.70
2022-11-10T22:31:20.585Z,66.80
2022-11-10T22:33:48.323Z,60.70
2022-11-10T22:36:17.845Z,62.60
2022-11-10T22:38:47.016Z,62.30
2022-11-10T22:41:35.064Z,68.30
2022-11-10T22:44:09.280Z,65.80
2022-11-10T22:46:42.172Z,63.80
2022-11-10T22:49:14.485Z,62.80
2022-11-10T22:51:45.898Z,64.60
2022-11-10T22:54:18.251Z,63.90
2022-11-10T22:56:48.203Z,66.80
2022-11-10T22:59:19.459Z,63.60
2022-11-10T23:01:48.693Z,60.60
2022-11-10T23:04:17.806Z,61.40
2022-11-10T23:06:45.566Z,65.00
2022-11-10T23:09:13.305Z,60.60
2022-11-10T23:11:41.074Z,61.00
2022-11-10T23:14:11.081Z,54.40
2022-11-10T23:16:38.802Z,64.10
2022-11-10T23:19:06.512Z,61.20
2022-11-10T23:21:34.281Z,54.50
2022-11-10T23:24:02.047Z,56.40
2022-11-10T23:26:30.360Z,57.40
2022-11-10T23:28:58.090Z,52.90
2022-11-10T23:31:28.728Z,55.40
2022-11-10T23:33:59.060Z,58.70
2022-11-10T23:36:28.664Z,58.40
2022-11-10T23:38:56.368Z,57.00
2022-11-10T23:41:27.043Z,55.90
2022-11-10T23:43:54.880Z,52.00
2022-11-10T23:46:24.110Z,57.10
2022-11-10T23:48:51.817Z,50.10
2022-11-10T23:51:20.805Z,52.50
2022-11-10T23:53:48.513Z,56.30
2022-11-10T23:56:18.052Z,55.60
2022-11-10T23:58:45.962Z,59.00
